createdAt,value
2023-03-26T00:00:04.797Z,18596.3848
2023-03-26T00:01:06.431Z,18599.0000
2023-03-26T00:02:08.255Z,18596.1543
2023-03-26T00:03:09.703Z,18593.3086
2023-03-26T00:04:11.468Z,18592.8457
2023-03-26T00:05:13.102Z,18588.5391
2023-03-26T00:06:14.664Z,18588.1543
2023-03-26T00:07:16.403Z,18591.6914
2023-03-26T00:08:18.068Z,18591.6152
2023-03-26T00:09:19.578Z,18596.7695
2023-03-26T00:10:21.365Z,18596.3086
2023-03-26T00:11:22.937Z,18593.1543
2023-03-26T00:12:24.584Z,18589.1543
2023-03-26T00:13:26.231Z,18591.5391
2023-03-26T00:14:27.862Z,18592.5391
2023-03-26T00:15:29.484Z,18596.2305
2023-03-26T00:16:31.197Z,18589.3086
2023-03-26T00:17:32.830Z,18589.0000
2023-03-26T00:18:34.504Z,18588.0762
2023-03-26T00:19:36.090Z,18590.2305
2023-03-26T00:20:37.740Z,18591.7695
2023-03-26T00:21:39.394Z,18590.5391
2023-03-26T00:22:41.109Z,18590.3086
2023-03-26T00:23:42.671Z,18591.5391
2023-03-26T00:24:44.339Z,18592.6914
2023-03-26T00:25:46.771Z,18589.6914
2023-03-26T00:26:47.648Z,18592.4609
2023-03-26T00:27:49.294Z,18589.3848
2023-03-26T00:28:50.953Z,18590.6914
2023-03-26T00:29:52.563Z,18586.7695
2023-03-26T00:30:54.279Z,18590.5391
2023-03-26T00:31:55.871Z,18589.5391
2023-03-26T00:32:57.570Z,18589.2305
2023-03-26T00:33:59.161Z,18589.7695
2023-03-26T00:35:00.845Z,18588.6914
2023-03-26T00:36:04.397Z,18588.6914
2023-03-26T00:37:04.125Z,18589.3086
2023-03-26T00:38:05.776Z,18590.3848
2023-03-26T00:39:07.417Z,18589.5391
2023-03-26T00:40:09.040Z,18588.3848
2023-03-26T00:41:10.712Z,18587.3086
2023-03-26T00:42:12.342Z,18589.6152
2023-03-26T00:43:14.019Z,18588.6914
2023-03-26T00:44:15.643Z,18584.3848
2023-03-26T00:45:17.304Z,18588.3848
2023-03-26T00:46:18.998Z,18588.6152
2023-03-26T00:47:20.761Z,18587.8457
2023-03-26T00:48:28.846Z,18585.8457
2023-03-26T00:49:23.890Z,18585.7695
2023-03-26T00:50:25.529Z,18582.8457
2023-03-26T00:51:27.218Z,18584.4609
2023-03-26T00:52:28.833Z,18586.0762
2023-03-26T00:53:30.667Z,18586.2305
2023-03-26T00:54:32.142Z,18585.6152
2023-03-26T00:55:33.805Z,18583.7695
2023-03-26T00:56:35.476Z,18586.6914
2023-03-26T00:57:37.185Z,18584.3848
2023-03-26T00:58:38.751Z,18585.7695
2023-03-26T00:59:40.403Z,18583.6914
2023-03-26T01:00:42.034Z,18585.3848
2023-03-26T01:01:43.726Z,18583.7695
2023-03-26T01:02:45.435Z,18582.7695
2023-03-26T01:04:04.830Z,18582.5391
2023-03-26T01:04:48.759Z,18581.1543
2023-03-26T01:05:50.303Z,18582.6152
2023-03-26T01:06:51.916Z,18582.4609
2023-03-26T01:07:53.590Z,18581.7695
2023-03-26T01:08:55.251Z,18580.5391
2023-03-26T01:09:56.871Z,18583.6152
2023-03-26T01:10:58.514Z,18582.8457
2023-03-26T01:12:00.181Z,18582.0000
2023-03-26T01:13:01.812Z,18582.9238
2023-03-26T01:14:03.502Z,18582.6914
2023-03-26T01:15:05.124Z,18577.8457
2023-03-26T01:16:06.822Z,18581.7695
2023-03-26T01:17:08.405Z,18579.1543
2023-03-26T01:18:10.092Z,18584.0762
2023-03-26T01:19:11.721Z,18579.1543
2023-03-26T01:20:13.376Z,18580.6152
2023-03-26T01:21:15.000Z,18577.5391
2023-03-26T01:22:16.687Z,18578.5391
2023-03-26T01:23:18.326Z,18583.0762
2023-03-26T01:24:20.001Z,18578.7695
2023-03-26T01:25:21.604Z,18577.5391
2023-03-26T01:26:23.261Z,18580.1543
2023-03-26T01:27:24.902Z,18578.1543
2023-03-26T01:28:26.573Z,18577.6914
2023-03-26T01:29:28.242Z,18578.8457
2023-03-26T01:30:29.869Z,18575.9238
2023-03-26T01:31:31.483Z,18576.3086
2023-03-26T01:32:33.321Z,18573.3086
2023-03-26T01:33:34.855Z,18573.0000
2023-03-26T01:34:36.502Z,18577.7695
2023-03-26T01:35:38.118Z,18574.3848
2023-03-26T01:36:39.765Z,18576.0000
2023-03-26T01:37:41.381Z,18573.0000
2023-03-26T01:38:43.060Z,18571.5391
2023-03-26T01:39:44.713Z,18571.9238
2023-03-26T01:40:46.351Z,18573.3086
2023-03-26T01:41:47.986Z,18565.2305
2023-03-26T01:42:49.661Z,18565.2305
2023-03-26T01:43:51.289Z,18570.6152
2023-03-26T01:44:52.978Z,18571.4609
2023-03-26T01:45:54.738Z,18573.2305
2023-03-26T01:46:56.339Z,18573.5391
2023-03-26T01:47:57.905Z,18571.2305
2023-03-26T01:48:59.532Z,18569.3848
2023-03-26T01:50:01.207Z,18559.8457
2023-03-26T01:51:02.838Z,18570.0000
2023-03-26T01:52:04.470Z,18568.2305
2023-03-26T01:53:06.143Z,18561.1543
2023-03-26T01:54:07.840Z,18566.0000
2023-03-26T01:55:09.533Z,18563.1543
2023-03-26T01:56:11.172Z,18568.8457
2023-03-26T01:57:12.822Z,18565.7695
2023-03-26T01:58:14.439Z,18561.9238
2023-03-26T01:59:16.117Z,18566.4609
2023-03-26T02:00:17.777Z,18565.3086
2023-03-26T02:01:19.481Z,18563.6152
2023-03-26T02:02:21.173Z,18564.0000
2023-03-26T02:03:22.854Z,18563.8457
2023-03-26T02:04:24.362Z,18557.1543
2023-03-26T02:05:26.063Z,18561.0762
2023-03-26T02:06:27.652Z,18562.6914
2023-03-26T02:07:29.328Z,18558.8457
2023-03-26T02:08:30.963Z,18559.3086
2023-03-26T02:09:32.614Z,18567.3086
2023-03-26T02:10:34.270Z,18565.0000
2023-03-26T02:11:36.224Z,18561.6914
2023-03-26T02:12:37.544Z,18561.8457
2023-03-26T02:13:39.217Z,18559.6914
2023-03-26T02:14:40.862Z,18553.6152
2023-03-26T02:15:42.541Z,18557.0762
2023-03-26T02:16:44.166Z,18563.6152
2023-03-26T02:17:45.827Z,18562.0000
2023-03-26T02:18:47.498Z,18562.3848
2023-03-26T02:19:49.125Z,18565.3086
2023-03-26T02:20:50.773Z,18559.6152
2023-03-26T02:21:52.408Z,18551.2305
2023-03-26T02:22:54.043Z,18556.9238
2023-03-26T02:23:55.715Z,18555.5391
2023-03-26T02:24:57.349Z,18562.8457
2023-03-26T02:25:59.043Z,18558.5391
2023-03-26T02:27:00.642Z,18557.8457
2023-03-26T02:28:02.304Z,18555.0762
2023-03-26T02:29:03.941Z,18550.0000
2023-03-26T02:30:05.606Z,18555.8457
2023-03-26T02:31:07.274Z,18556.4609
2023-03-26T02:32:08.909Z,18553.6914
2023-03-26T02:33:10.591Z,18550.3086
2023-03-26T02:34:12.220Z,18553.7695
2023-03-26T02:35:13.894Z,18561.5391
2023-03-26T02:36:15.601Z,18554.0000
2023-03-26T02:37:17.145Z,18552.6914
2023-03-26T02:38:18.775Z,18549.8457
2023-03-26T02:39:20.445Z,18546.3848
2023-03-26T02:40:22.096Z,18553.0762
2023-03-26T02:41:23.749Z,18551.8457
2023-03-26T02:42:25.385Z,18558.0000
2023-03-26T02:43:27.019Z,18554.0762
2023-03-26T02:44:28.680Z,18550.1543
2023-03-26T02:45:30.315Z,18558.5391
2023-03-26T02:46:32.054Z,18553.9238
2023-03-26T02:47:33.692Z,18551.6914
2023-03-26T02:48:35.271Z,18553.1543
2023-03-26T02:49:36.899Z,18547.8457
2023-03-26T02:50:38.578Z,18547.6152
2023-03-26T02:51:40.210Z,18547.0000
2023-03-26T02:52:41.871Z,18549.4609
2023-03-26T02:53:43.496Z,18550.3086
2023-03-26T02:54:45.154Z,18547.9238
2023-03-26T02:55:46.792Z,18540.8457
2023-03-26T02:56:48.505Z,18543.3086
2023-03-26T02:57:50.096Z,18546.0762
2023-03-26T02:58:51.757Z,18547.6152
2023-03-26T02:59:53.391Z,18544.9238
2023-03-26T03:00:55.143Z,18542.3086
2023-03-26T03:01:56.759Z,18537.2305
2023-03-26T03:02:58.443Z,18543.3086
2023-03-26T03:03:59.984Z,18536.4609
2023-03-26T03:05:01.765Z,18535.3086
2023-03-26T03:06:03.269Z,18534.7695
2023-03-26T03:07:05.069Z,18538.0000
2023-03-26T03:08:06.643Z,18536.1543
2023-03-26T03:09:08.284Z,18533.6152
2023-03-26T03:10:09.973Z,18527.2305
2023-03-26T03:11:11.592Z,18535.3848
2023-03-26T03:12:13.299Z,18533.8457
2023-03-26T03:13:14.941Z,18536.1543
2023-03-26T03:14:16.511Z,18534.8457
2023-03-26T03:15:18.247Z,18530.3848
2023-03-26T03:16:19.921Z,18531.6914
2023-03-26T03:17:21.559Z,18534.6152
2023-03-26T03:18:23.194Z,18531.6914
2023-03-26T03:19:24.745Z,18535.5391
2023-03-26T03:20:26.363Z,18534.0000
2023-03-26T03:21:28.037Z,18536.6152
2023-03-26T03:22:29.689Z,18532.5391
2023-03-26T03:23:31.319Z,18530.0762
2023-03-26T03:24:32.961Z,18523.3848
2023-03-26T03:25:34.636Z,18528.4609
2023-03-26T03:26:36.253Z,18531.7695
2023-03-26T03:27:37.949Z,18529.3086
2023-03-26T03:28:39.566Z,18527.9238
2023-03-26T03:29:41.212Z,18532.3086
2023-03-26T03:30:42.897Z,18527.3848
2023-03-26T03:31:44.520Z,18530.2305
2023-03-26T03:32:46.238Z,18525.3086
2023-03-26T03:33:47.819Z,18527.8457
2023-03-26T03:34:49.438Z,18525.6914
2023-03-26T03:35:51.113Z,18527.9238
2023-03-26T03:36:52.726Z,18527.2305
2023-03-26T03:37:54.415Z,18532.6914
2023-03-26T03:38:56.041Z,18533.1543
2023-03-26T03:39:57.694Z,18528.4609
2023-03-26T03:40:59.324Z,18524.7695
2023-03-26T03:42:00.998Z,18528.3848
2023-03-26T03:43:02.665Z,18525.0762
2023-03-26T03:44:04.300Z,18528.6152
2023-03-26T03:45:05.928Z,18524.6914
2023-03-26T03:46:07.639Z,18528.0000
2023-03-26T03:47:09.211Z,18527.9238
2023-03-26T03:48:10.942Z,18525.0762
2023-03-26T03:49:12.526Z,18523.7695
2023-03-26T03:50:14.200Z,18524.9238
2023-03-26T03:51:15.841Z,18523.2305
2023-03-26T03:52:17.487Z,18522.5391
2023-03-26T03:53:19.144Z,18522.7695
2023-03-26T03:54:20.786Z,18515.8457
2023-03-26T03:55:22.409Z,18528.9238
2023-03-26T03:56:24.101Z,18527.3086
2023-03-26T03:57:25.728Z,18528.2305
2023-03-26T03:58:27.424Z,18524.8457
2023-03-26T03:59:29.004Z,18525.7695
2023-03-26T04:00:30.696Z,18525.4609
2023-03-26T04:01:32.304Z,18519.6152
2023-03-26T04:02:34.076Z,18518.9238
2023-03-26T04:03:35.778Z,18521.6152
2023-03-26T04:04:37.331Z,18527.0762
2023-03-26T04:05:38.920Z,18517.0000
2023-03-26T04:06:40.579Z,18522.6914
2023-03-26T04:07:42.206Z,18526.7695
2023-03-26T04:08:43.995Z,18522.7695
2023-03-26T04:09:45.504Z,18526.4609
2023-03-26T04:10:47.163Z,18521.3086
2023-03-26T04:11:48.802Z,18526.2305
2023-03-26T04:12:50.461Z,18521.5391
2023-03-26T04:13:52.113Z,18518.9238
2023-03-26T04:14:53.756Z,18524.5391
2023-03-26T04:15:55.656Z,18523.2305
2023-03-26T04:16:57.061Z,18520.3848
2023-03-26T04:17:58.760Z,18520.8457
2023-03-26T04:19:00.371Z,18513.8457
2023-03-26T04:20:01.983Z,18520.3848
2023-03-26T04:21:03.638Z,18522.8457
2023-03-26T04:22:05.288Z,18521.0000
2023-03-26T04:23:06.948Z,18519.0000
2023-03-26T04:24:08.597Z,18525.1543
2023-03-26T04:25:10.259Z,18525.3086
2023-03-26T04:26:11.867Z,18515.0762
2023-03-26T04:27:13.527Z,18520.0000
2023-03-26T04:28:15.162Z,18513.6152
2023-03-26T04:29:16.844Z,18524.3848
2023-03-26T04:30:18.456Z,18520.0762
2023-03-26T04:31:20.163Z,18519.3848
2023-03-26T04:32:21.773Z,18517.6914
2023-03-26T04:33:23.438Z,18522.2305
2023-03-26T04:34:25.127Z,18519.8457
2023-03-26T04:35:26.763Z,18511.6152
2023-03-26T04:36:28.390Z,18509.2305
2023-03-26T04:37:30.020Z,18520.0000
2023-03-26T04:38:31.645Z,18518.6914
2023-03-26T04:39:33.352Z,18520.6152
2023-03-26T04:40:34.969Z,18519.6152
2023-03-26T04:41:36.630Z,18518.1543
2023-03-26T04:42:38.253Z,18516.9238
2023-03-26T04:43:39.929Z,18514.5391
2023-03-26T04:44:41.638Z,18519.0762
2023-03-26T04:45:43.209Z,18518.4609
2023-03-26T04:46:44.853Z,18518.4609
2023-03-26T04:47:46.802Z,18516.0000
2023-03-26T04:48:48.141Z,18518.6914
2023-03-26T04:49:49.839Z,18517.6152
2023-03-26T04:50:51.448Z,18517.8457
2023-03-26T04:51:53.095Z,18515.6152
2023-03-26T04:52:54.750Z,18516.5391
2023-03-26T04:53:56.418Z,18518.1543
2023-03-26T04:54:58.060Z,18516.6914
2023-03-26T04:55:59.699Z,18514.2305
2023-03-26T04:57:01.343Z,18515.0000
2023-03-26T04:58:02.986Z,18513.6914
2023-03-26T04:59:04.628Z,18519.6914
2023-03-26T05:00:06.317Z,18520.5391
2023-03-26T05:01:10.318Z,18509.5391
2023-03-26T05:02:09.620Z,18520.1543
2023-03-26T05:03:11.218Z,18511.5391
2023-03-26T05:04:12.893Z,18515.8457
2023-03-26T05:05:14.543Z,18513.3848
2023-03-26T05:06:16.195Z,18519.0762
2023-03-26T05:07:17.819Z,18514.3086
2023-03-26T05:08:19.492Z,18509.8457
2023-03-26T05:09:21.126Z,18509.6914
2023-03-26T05:10:22.869Z,18512.9238
2023-03-26T05:11:24.430Z,18510.3086
2023-03-26T05:12:26.100Z,18513.0762
2023-03-26T05:13:27.713Z,18511.0762
2023-03-26T05:14:29.390Z,18511.7695
2023-03-26T05:15:31.053Z,18512.6152
2023-03-26T05:16:32.706Z,18511.0762
2023-03-26T05:17:34.382Z,18511.4609
2023-03-26T05:18:36.015Z,18508.6914
2023-03-26T05:19:37.624Z,18514.3086
2023-03-26T05:20:39.328Z,18517.8457
2023-03-26T05:21:40.933Z,18518.7695
2023-03-26T05:22:42.592Z,18516.0000
2023-03-26T05:23:44.233Z,18514.8457
2023-03-26T05:24:45.911Z,18513.3086
2023-03-26T05:25:47.567Z,18516.3848
2023-03-26T05:26:49.205Z,18514.6914
2023-03-26T05:27:50.820Z,18512.6914
2023-03-26T05:28:52.733Z,18511.8457
2023-03-26T05:29:54.109Z,18514.7695
2023-03-26T05:30:55.984Z,18510.1543
2023-03-26T05:31:57.432Z,18513.0000
2023-03-26T05:32:59.125Z,18513.7695
2023-03-26T05:34:00.861Z,18512.9238
2023-03-26T05:35:02.352Z,18511.0762
2023-03-26T05:36:04.081Z,18510.9238
2023-03-26T05:37:05.667Z,18513.6152
2023-03-26T05:38:07.317Z,18511.6152
2023-03-26T05:39:08.947Z,18505.8457
2023-03-26T05:40:10.640Z,18511.4609
2023-03-26T05:41:12.285Z,18512.3086
2023-03-26T05:42:13.922Z,18508.0000
2023-03-26T05:43:15.549Z,18508.4609
2023-03-26T05:44:17.234Z,18513.4609
2023-03-26T05:45:18.853Z,18513.8457
2023-03-26T05:46:20.653Z,18514.5391
2023-03-26T05:47:22.143Z,18515.6914
2023-03-26T05:48:23.828Z,18510.5391
2023-03-26T05:49:25.460Z,18507.0000
2023-03-26T05:50:27.129Z,18508.5391
2023-03-26T05:51:28.775Z,18514.2305
2023-03-26T05:52:30.430Z,18508.0000
2023-03-26T05:53:32.066Z,18506.0762
2023-03-26T05:54:33.740Z,18510.6914
2023-03-26T05:55:35.365Z,18509.3848
2023-03-26T05:56:37.175Z,18513.6914
2023-03-26T05:57:38.734Z,18506.1543
2023-03-26T05:58:40.413Z,18508.2305
2023-03-26T05:59:42.029Z,18509.5391
2023-03-26T06:00:43.705Z,18508.8457
2023-03-26T06:01:45.362Z,18509.5391
2023-03-26T06:02:47.091Z,18512.6914
2023-03-26T06:03:48.707Z,18508.8457
2023-03-26T06:04:50.349Z,18506.0000
2023-03-26T06:05:51.933Z,18509.3086
2023-03-26T06:06:53.634Z,18510.3848
2023-03-26T06:07:55.224Z,18507.3848
2023-03-26T06:09:01.910Z,18504.7695
2023-03-26T06:09:58.533Z,18510.9238
2023-03-26T06:11:00.221Z,18501.9238
2023-03-26T06:12:01.874Z,18504.8457
2023-03-26T06:13:03.513Z,18508.8457
2023-03-26T06:14:05.126Z,18511.3848
2023-03-26T06:15:06.807Z,18510.6152
2023-03-26T06:16:08.459Z,18511.0762
2023-03-26T06:17:10.180Z,18510.7695
2023-03-26T06:18:11.791Z,18509.7695
2023-03-26T06:19:13.519Z,18701.6914
2023-03-26T06:20:15.037Z,18979.6152
2023-03-26T06:21:16.704Z,19148.6914
2023-03-26T06:22:18.358Z,19182.3848
2023-03-26T06:23:19.996Z,19141.3848
2023-03-26T06:24:21.630Z,19126.6152
2023-03-26T06:25:23.295Z,19191.5391
2023-03-26T06:26:24.936Z,19221.4609
2023-03-26T06:27:26.625Z,19239.9238
2023-03-26T06:28:28.244Z,19268.0000
2023-03-26T06:29:29.918Z,19268.1543
2023-03-26T06:30:31.551Z,19281.8457
2023-03-26T06:31:33.257Z,19301.1543
2023-03-26T06:32:34.913Z,19249.0000
2023-03-26T06:33:36.517Z,19163.0000
2023-03-26T06:34:38.146Z,19111.1543
2023-03-26T06:35:39.855Z,19021.1543
2023-03-26T06:36:41.465Z,18990.6152
2023-03-26T06:37:43.146Z,18987.1543
2023-03-26T06:38:44.770Z,18979.6152
2023-03-26T06:39:46.429Z,18980.0762
2023-03-26T06:40:48.069Z,18975.8457
2023-03-26T06:41:49.730Z,18962.7695
2023-03-26T06:43:08.643Z,18957.9238
2023-03-26T06:43:53.048Z,18949.3848
2023-03-26T06:44:54.669Z,18924.6152
2023-03-26T06:45:56.357Z,18827.3086
2023-03-26T06:46:58.046Z,18620.4609
2023-03-26T06:47:59.734Z,18700.2305
2023-03-26T06:49:01.283Z,18659.0000
2023-03-26T06:50:02.977Z,18656.4609
2023-03-26T06:51:04.608Z,18609.0762
2023-03-26T06:52:06.274Z,18617.8457
2023-03-26T06:53:07.913Z,18643.8457
2023-03-26T06:54:09.563Z,18657.7695
2023-03-26T06:55:11.220Z,18711.5391
2023-03-26T06:56:12.873Z,18681.0762
2023-03-26T06:57:14.527Z,18705.9238
2023-03-26T06:58:16.210Z,18702.8457
2023-03-26T06:59:17.846Z,18706.7695
2023-03-26T07:00:19.485Z,18671.3848
2023-03-26T07:01:21.165Z,18634.3848
2023-03-26T07:02:22.819Z,18613.0000
2023-03-26T07:03:24.433Z,18627.8457
2023-03-26T07:04:26.110Z,18630.2305
2023-03-26T07:05:27.781Z,18611.9238
2023-03-26T07:06:29.391Z,18535.2305
2023-03-26T07:07:31.047Z,18557.5391
2023-03-26T07:08:32.720Z,18538.3848
2023-03-26T07:09:34.360Z,18537.7695
2023-03-26T07:10:35.987Z,18512.6914
2023-03-26T07:11:37.656Z,18500.6914
2023-03-26T07:12:39.292Z,18489.2305
2023-03-26T07:13:40.978Z,18502.9238
2023-03-26T07:14:42.601Z,18486.3848
2023-03-26T07:15:44.282Z,18488.0000
2023-03-26T07:16:45.903Z,18489.6914
2023-03-26T07:17:47.577Z,18497.3086
2023-03-26T07:18:49.452Z,18453.0762
2023-03-26T07:19:50.874Z,18429.1543
2023-03-26T07:20:52.605Z,18422.5391
2023-03-26T07:21:54.177Z,18410.5391
2023-03-26T07:22:55.801Z,18422.1543
2023-03-26T07:23:57.493Z,18392.9238
2023-03-26T07:24:59.111Z,18406.5391
2023-03-26T07:26:00.786Z,18404.0000
2023-03-26T07:27:02.429Z,18369.3848
2023-03-26T07:28:04.088Z,18316.9238
2023-03-26T07:29:05.728Z,18381.0000
2023-03-26T07:30:07.396Z,18386.3086
2023-03-26T07:31:09.015Z,18371.6152
2023-03-26T07:32:10.680Z,18366.4609
2023-03-26T07:33:12.314Z,18365.1543
2023-03-26T07:34:14.011Z,18365.6152
2023-03-26T07:35:15.629Z,18360.0762
2023-03-26T07:36:17.304Z,18335.3086
2023-03-26T07:37:18.925Z,18325.3086
2023-03-26T07:38:20.592Z,18336.6152
2023-03-26T07:39:22.250Z,18336.3848
2023-03-26T07:40:23.900Z,18305.8457
2023-03-26T07:41:25.537Z,18337.0000
2023-03-26T07:42:27.223Z,18349.2305
2023-03-26T07:43:28.852Z,18345.5391
2023-03-26T07:44:30.525Z,18346.3086
2023-03-26T07:45:32.165Z,18341.2305
2023-03-26T07:46:33.800Z,18341.3086
2023-03-26T07:47:35.478Z,18350.0000
2023-03-26T07:48:37.104Z,18350.0000
2023-03-26T07:49:38.758Z,18354.1543
2023-03-26T07:50:40.410Z,18358.4609
2023-03-26T07:51:42.048Z,18357.3848
2023-03-26T07:52:43.708Z,18353.7695
2023-03-26T07:53:45.341Z,18342.7695
2023-03-26T07:54:47.048Z,18344.5391
2023-03-26T07:55:48.663Z,18341.8457
2023-03-26T07:56:50.386Z,18347.2305
2023-03-26T07:57:51.936Z,18359.6152
2023-03-26T07:58:53.615Z,18368.5391
2023-03-26T07:59:55.266Z,18388.0762
2023-03-26T08:00:57.125Z,18405.6914
2023-03-26T08:01:58.543Z,18411.0762
2023-03-26T08:03:00.286Z,18417.0762
2023-03-26T08:04:23.424Z,18419.3086
2023-03-26T08:05:03.597Z,18416.5391
2023-03-26T08:06:05.134Z,18416.2305
2023-03-26T08:07:06.803Z,18413.0000
2023-03-26T08:08:08.443Z,18402.7695
2023-03-26T08:09:10.109Z,18406.1543
2023-03-26T08:10:12.016Z,18398.6914
2023-03-26T08:11:13.422Z,18399.3086
2023-03-26T08:12:15.039Z,18398.7695
2023-03-26T08:13:16.732Z,18395.6914
2023-03-26T08:14:18.336Z,18395.3086
2023-03-26T08:15:20.037Z,18394.3848
2023-03-26T08:16:21.666Z,18395.0762
2023-03-26T08:17:23.346Z,18391.9238
2023-03-26T08:18:24.942Z,18394.0762
2023-03-26T08:19:26.612Z,18392.0762
2023-03-26T08:20:28.339Z,18396.3848
2023-03-26T08:21:29.918Z,18397.3086
2023-03-26T08:22:31.591Z,18399.3086
2023-03-26T08:23:33.220Z,18398.3848
2023-03-26T08:24:34.893Z,18397.5391
2023-03-26T08:25:38.001Z,18399.0000
2023-03-26T08:26:38.146Z,18403.1543
2023-03-26T08:27:39.809Z,18406.4609
2023-03-26T08:28:41.471Z,18407.3086
2023-03-26T08:29:43.133Z,18411.3848
2023-03-26T08:30:44.812Z,18409.0762
2023-03-26T08:31:46.411Z,18413.3086
2023-03-26T08:32:48.132Z,18409.8457
2023-03-26T08:33:49.731Z,18411.6152
2023-03-26T08:34:51.402Z,18409.7695
2023-03-26T08:35:53.132Z,18409.3848
2023-03-26T08:36:54.721Z,18408.7695
2023-03-26T08:37:56.332Z,18411.6152
2023-03-26T08:38:58.001Z,18410.2305
2023-03-26T08:39:59.643Z,18408.9238
2023-03-26T08:41:01.332Z,18409.4609
2023-03-26T08:42:02.931Z,18410.5391
2023-03-26T08:43:04.602Z,18412.9238
2023-03-26T08:44:06.260Z,18414.7695
2023-03-26T08:45:07.927Z,18410.9238
2023-03-26T08:46:09.597Z,18408.6914
2023-03-26T08:47:11.204Z,18411.3848
2023-03-26T08:48:12.844Z,18414.7695
2023-03-26T08:49:14.501Z,18413.0000
2023-03-26T08:50:16.238Z,18413.7695
2023-03-26T08:51:17.836Z,18412.4609
2023-03-26T08:52:19.446Z,18412.8457
2023-03-26T08:53:21.116Z,18412.1543
2023-03-26T08:54:22.750Z,18413.7695
2023-03-26T08:55:24.423Z,18412.0000
2023-03-26T08:56:26.098Z,18413.5391
2023-03-26T08:57:27.716Z,18411.1543
2023-03-26T08:58:29.352Z,18413.8457
2023-03-26T08:59:31.029Z,18416.3848
2023-03-26T09:00:32.663Z,18414.8457
2023-03-26T09:01:34.393Z,18411.0000
2023-03-26T09:02:36.030Z,18415.3086
2023-03-26T09:03:37.625Z,18415.1543
2023-03-26T09:04:39.272Z,18415.3848
2023-03-26T09:05:40.958Z,18415.9238
2023-03-26T09:06:42.646Z,18416.0000
2023-03-26T09:07:44.293Z,18413.4609
2023-03-26T09:08:54.212Z,18418.4609
2023-03-26T09:09:47.505Z,18415.4609
2023-03-26T09:10:49.154Z,18416.5391
2023-03-26T09:11:50.823Z,18419.3086
2023-03-26T09:12:52.440Z,18415.5391
2023-03-26T09:13:54.132Z,18418.5391
2023-03-26T09:14:55.757Z,18419.0762
2023-03-26T09:15:57.511Z,18419.3086
2023-03-26T09:16:59.080Z,18416.7695
2023-03-26T09:18:00.762Z,18418.7695
2023-03-26T09:19:02.345Z,18419.0762
2023-03-26T09:20:04.026Z,18419.7695
2023-03-26T09:21:05.673Z,18418.7695
2023-03-26T09:22:07.380Z,18423.1543
2023-03-26T09:23:08.960Z,18420.0762
2023-03-26T09:24:10.624Z,18422.3086
2023-03-26T09:25:12.276Z,18423.9238
2023-03-26T09:26:13.929Z,18424.6914
2023-03-26T09:27:15.589Z,18422.3848
2023-03-26T09:28:17.225Z,18424.0762
2023-03-26T09:29:18.855Z,18425.0762
2023-03-26T09:30:20.505Z,18422.2305
2023-03-26T09:31:22.202Z,18424.8457
2023-03-26T09:32:23.942Z,18422.3086
2023-03-26T09:33:25.477Z,18421.5391
2023-03-26T09:34:27.144Z,18424.9238
2023-03-26T09:35:28.764Z,18428.7695
2023-03-26T09:36:30.472Z,18424.8457
2023-03-26T09:37:32.083Z,18423.8457
2023-03-26T09:38:33.741Z,18427.3086
2023-03-26T09:39:35.363Z,18424.4609
2023-03-26T09:40:37.035Z,18424.6914
2023-03-26T09:41:38.658Z,18426.8457
2023-03-26T09:42:40.359Z,18397.6152
2023-03-26T09:43:41.996Z,18681.1543
2023-03-26T09:44:43.628Z,18525.0762
2023-03-26T09:45:45.275Z,18439.0000
2023-03-26T09:46:46.936Z,18448.6152
2023-03-26T09:47:48.648Z,18460.0000
2023-03-26T09:48:50.237Z,18465.9238
2023-03-26T09:49:51.865Z,18463.7695
2023-03-26T09:50:53.719Z,18459.0000
2023-03-26T09:51:55.146Z,18455.4609
2023-03-26T09:52:56.845Z,18451.3848
2023-03-26T09:53:58.447Z,18449.4609
2023-03-26T09:55:00.162Z,18445.4609
2023-03-26T09:56:01.772Z,18444.6152
2023-03-26T09:57:03.465Z,18441.3848
2023-03-26T09:58:05.134Z,18437.2305
2023-03-26T09:59:06.854Z,18435.6914
2023-03-26T10:00:08.423Z,18437.5391
2023-03-26T10:01:10.144Z,18438.3086
2023-03-26T10:02:11.717Z,18442.9238
2023-03-26T10:03:13.465Z,18707.1543
2023-03-26T10:04:15.024Z,18971.6914
2023-03-26T10:05:16.690Z,19074.5391
2023-03-26T10:06:18.313Z,19087.7695
2023-03-26T10:07:19.984Z,19067.3848
2023-03-26T10:08:21.641Z,19059.0762
2023-03-26T10:09:23.290Z,19051.3848
2023-03-26T10:10:24.906Z,19044.9238
2023-03-26T10:11:26.588Z,19035.5391
2023-03-26T10:12:28.222Z,18993.9238
2023-03-26T10:13:29.928Z,18977.7695
2023-03-26T10:14:31.532Z,18966.7695
2023-03-26T10:15:33.198Z,18952.4609
2023-03-26T10:16:34.880Z,18943.8457
2023-03-26T10:17:37.179Z,18927.8457
2023-03-26T10:18:38.166Z,18919.6152
2023-03-26T10:19:39.808Z,18912.6914
2023-03-26T10:20:41.434Z,18899.1543
2023-03-26T10:21:43.096Z,18896.8457
2023-03-26T10:22:44.742Z,18885.5391
2023-03-26T10:23:46.425Z,18871.6914
2023-03-26T10:24:48.044Z,18868.9238
2023-03-26T10:25:49.745Z,18860.9238
2023-03-26T10:27:08.589Z,18855.6914
2023-03-26T10:27:53.014Z,18851.6914
2023-03-26T10:28:54.677Z,18842.4609
2023-03-26T10:29:56.325Z,18841.0000
2023-03-26T10:30:58.118Z,18835.3086
2023-03-26T10:31:59.616Z,18829.2305
2023-03-26T10:33:01.324Z,18824.9238
2023-03-26T10:34:02.959Z,18822.9238
2023-03-26T10:35:04.555Z,18817.6152
2023-03-26T10:36:06.251Z,18817.6152
2023-03-26T10:37:07.851Z,18816.6152
2023-03-26T10:38:09.527Z,18811.9238
2023-03-26T10:39:11.183Z,18814.0762
2023-03-26T10:40:12.830Z,18808.1543
2023-03-26T10:41:14.491Z,18803.6914
2023-03-26T10:42:16.123Z,18803.2305
2023-03-26T10:43:17.763Z,18802.7695
2023-03-26T10:44:19.508Z,18796.3848
2023-03-26T10:45:21.096Z,18790.4609
2023-03-26T10:46:22.772Z,18786.6914
2023-03-26T10:47:24.432Z,18779.6152
2023-03-26T10:48:26.054Z,18778.4609
2023-03-26T10:49:27.750Z,18783.6152
2023-03-26T10:50:29.362Z,18779.0000
2023-03-26T10:51:30.972Z,18772.4609
2023-03-26T10:52:32.670Z,18771.9238
2023-03-26T10:53:34.295Z,18769.8457
2023-03-26T10:54:35.999Z,18770.4609
2023-03-26T10:55:37.596Z,18765.7695
2023-03-26T10:56:39.290Z,18763.4609
2023-03-26T10:57:40.896Z,18756.0000
2023-03-26T10:58:48.590Z,18754.8457
2023-03-26T10:59:44.247Z,18749.8457
2023-03-26T11:00:45.892Z,18747.2305
2023-03-26T11:01:47.524Z,18746.6152
2023-03-26T11:02:49.225Z,18745.3086
2023-03-26T11:03:50.827Z,18738.5391
2023-03-26T11:04:52.517Z,18736.6914
2023-03-26T11:05:54.191Z,18736.3086
2023-03-26T11:06:55.800Z,18735.3086
2023-03-26T11:07:57.430Z,18737.1543
2023-03-26T11:08:59.136Z,18731.0000
2023-03-26T11:10:00.746Z,18727.1543
2023-03-26T11:11:02.395Z,18715.0762
2023-03-26T11:12:26.223Z,18712.3848
2023-03-26T11:13:05.691Z,18702.5391
2023-03-26T11:14:07.339Z,18696.0762
2023-03-26T11:15:09.106Z,18704.3848
2023-03-26T11:16:10.642Z,18685.5391
2023-03-26T11:17:14.915Z,18686.3848
2023-03-26T11:18:13.963Z,18690.3086
2023-03-26T11:19:15.591Z,18682.2305
2023-03-26T11:20:17.292Z,18655.7695
2023-03-26T11:21:20.635Z,18670.3086
2023-03-26T11:22:20.527Z,18663.7695
2023-03-26T11:23:22.211Z,18664.7695